Time;durP1;ratioP1;P1;durP2;ratioP2;P2;SDS_P1;SDS_P2;PMS_P1;PMS_P2;Temp;Humidity;BMP_temperature;BMP_pressure;BME280_temperature;BME280_humidity;BME280_pressure;Samples;Min_cycle;Max_cycle;Signal;HPM_P1;HPM_P2
2022/04/22 00:00:07;;;;;;;9.60;6.00;;;;;;;-145.69;94.76;71223.31;5075759;28;20194;-78
2022/04/22 00:02:33;;;;;;;9.97;5.87;;;;;;;-145.69;95.34;71223.31;5075835;28;20195;-79
2022/04/22 00:05:00;;;;;;;7.97;5.60;;;;;;;-145.69;94.44;71221.31;5075427;28;20206;-78
2022/04/22 00:07:28;;;;;;;9.07;5.67;;;;;;;-145.69;96.26;71245.19;5075482;28;20199;-78
2022/04/22 00:09:54;;;;;;;14.23;6.40;;;;;;;-145.69;96.84;71231.28;5075726;28;20321;-79
2022/04/22 00:12:23;;;;;;;10.80;5.97;;;;;;;-145.69;96.74;71223.31;5072665;28;20195;-78
2022/04/22 00:14:49;;;;;;;11.87;6.40;;;;;;;-145.69;96.77;71219.34;5074736;28;20688;-78
2022/04/22 00:17:17;;;;;;;14.33;6.40;;;;;;;-145.69;96.08;71211.38;5076055;28;20322;-79
2022/04/22 00:19:44;;;;;;;9.57;6.27;;;;;;;-145.69;96.04;71227.28;5076038;28;20198;-79
2022/04/22 00:22:10;;;;;;;9.30;6.23;;;;;;;-145.69;97.02;71223.31;5075531;28;20209;-79
2022/04/22 00:24:36;;;;;;;12.30;6.47;;;;;;;-145.69;97.84;71229.28;5075871;28;20210;-79
2022/04/22 00:27:03;;;;;;;10.80;6.27;;;;;;;-145.69;97.29;71235.25;5075579;28;20600;-79
2022/04/22 00:29:29;;;;;;;8.73;6.30;;;;;;;-145.69;98.69;71241.22;5075402;28;20203;-79
2022/04/22 00:31:56;;;;;;;11.77;6.70;;;;;;;-145.69;97.46;71223.31;5075494;28;20233;-79
2022/04/22 00:34:24;;;;;;;10.40;6.60;;;;;;;-145.69;97.83;71215.34;5075493;28;20612;-78
2022/04/22 00:36:50;;;;;;;10.23;6.93;;;;;;;-145.69;97.70;71213.38;5075426;28;20207;-80
2022/04/22 00:39:17;;;;;;;11.03;7.10;;;;;;;-145.69;98.73;71227.28;5072743;28;20199;-79
2022/04/22 00:41:43;;;;;;;11.87;7.30;;;;;;;-145.69;99.19;71235.25;5075497;28;20729;-78
2022/04/22 00:44:10;;;;;;;11.83;6.77;;;;;;;-145.69;98.29;71203.41;5075542;28;20225;-79
2022/04/22 00:46:37;;;;;;;10.63;6.43;;;;;;;-145.69;96.90;71181.53;5074980;28;20241;-78
2022/04/22 00:49:04;;;;;;;14.40;7.83;;;;;;;-145.69;97.21;71187.50;5074847;28;20194;-79
2022/04/22 00:51:31;;;;;;;12.87;7.13;;;;;;;-145.69;97.37;71203.41;5075185;28;20237;-78
2022/04/22 00:53:58;;;;;;;10.70;6.40;;;;;;;-145.69;98.29;71231.28;5075504;28;20202;-79
2022/04/22 00:56:25;;;;;;;11.70;6.93;;;;;;;-145.69;100.00;71255.16;5075555;28;20209;-78
2022/04/22 00:58:52;;;;;;;12.60;7.27;;;;;;;-145.69;100.00;71271.06;5074231;28;20218;-79
2022/04/22 01:01:19;;;;;;;12.40;6.93;;;;;;;-145.69;100.00;71298.94;5074407;28;20211;-79
2022/04/22 01:11:58;;;;;;;13.67;7.57;;;;;;;-145.69;100.00;71338.72;5074618;28;20234;-79
2022/04/22 01:14:25;;;;;;;10.93;6.90;;;;;;;-145.69;100.00;71348.66;5074500;28;20195;-78
2022/04/22 01:16:51;;;;;;;12.60;7.17;;;;;;;-145.69;100.00;71362.59;5074644;28;20230;-78
2022/04/22 01:19:18;;;;;;;10.97;6.83;;;;;;;-145.69;100.00;71378.50;5074858;28;20199;-78
2022/04/22 01:21:46;;;;;;;13.80;7.07;;;;;;;-145.69;100.00;71382.50;5074774;28;20203;-79
2022/04/22 01:24:12;;;;;;;13.60;7.57;;;;;;;-145.69;100.00;71378.50;5074531;28;20653;-79
2022/04/22 01:26:39;;;;;;;13.50;7.47;;;;;;;-145.69;100.00;71388.47;5074516;28;20600;-78
2022/04/22 01:29:06;;;;;;;14.17;8.10;;;;;;;-145.69;100.00;71398.41;5073791;28;20210;-78
2022/04/22 01:31:33;;;;;;;16.10;9.10;;;;;;;-145.69;100.00;71400.41;5074492;28;20230;-79
2022/04/22 01:33:59;;;;;;;17.07;8.30;;;;;;;-145.69;100.00;71398.41;5074587;28;20206;-79
2022/04/22 01:36:26;;;;;;;14.70;7.87;;;;;;;-145.69;100.00;71398.41;5074434;28;20207;-78
2022/04/22 01:38:54;;;;;;;14.67;8.77;;;;;;;-145.69;100.00;71436.22;5073757;28;20203;-78
2022/04/22 01:41:21;;;;;;;13.13;7.70;;;;;;;-145.69;100.00;71460.09;5074071;28;20205;-78
2022/04/22 01:43:47;;;;;;;13.47;8.17;;;;;;;-145.69;100.00;71497.91;5074339;28;20294;-78
2022/04/22 01:46:15;;;;;;;17.77;8.20;;;;;;;-145.69;100.00;71513.81;5074057;28;20601;-79
2022/04/22 01:48:41;;;;;;;14.03;8.03;;;;;;;-145.69;100.00;71539.69;5074135;28;20311;-79
2022/04/22 01:51:08;;;;;;;14.57;8.07;;;;;;;-145.69;100.00;71565.56;5074049;28;20230;-78
2022/04/22 01:53:34;;;;;;;14.37;8.60;;;;;;;-145.69;100.00;71569.53;5074159;28;20221;-78
2022/04/22 01:56:02;;;;;;;18.27;9.57;;;;;;;-145.69;100.00;71555.63;5073912;28;20202;-79
2022/04/22 01:58:29;;;;;;;15.60;9.43;;;;;;;-145.69;100.00;71565.56;5073794;28;20679;-79
2022/04/22 02:00:55;;;;;;;20.40;10.70;;;;;;;-145.69;100.00;71569.53;5073231;28;20654;-79
2022/04/22 02:03:22;;;;;;;18.80;10.57;;;;;;;-145.69;100.00;71591.44;5073696;28;20206;-79
2022/04/22 02:05:48;;;;;;;18.30;9.80;;;;;;;-145.69;100.00;71611.34;5073584;28;20206;-79
2022/04/22 02:08:14;;;;;;;17.23;9.53;;;;;;;-145.69;100.00;71621.28;5073747;28;20264;-79
2022/04/22 02:10:41;;;;;;;19.17;10.47;;;;;;;-145.69;100.00;71639.19;5073365;28;20231;-79
2022/04/22 02:13:09;;;;;;;19.97;9.57;;;;;;;-145.69;100.00;71639.19;5073676;28;20294;-79
2022/04/22 02:15:36;;;;;;;23.70;11.03;;;;;;;-145.69;100.00;71609.34;5073447;28;20237;-79
2022/04/22 02:18:03;;;;;;;17.50;10.27;;;;;;;-145.69;100.00;71629.25;5073051;28;20234;-79
2022/04/22 02:20:29;;;;;;;21.37;11.73;;;;;;;-145.69;100.00;71643.19;5073030;28;20195;-79
2022/04/22 02:22:57;;;;;;;19.23;10.47;;;;;;;-145.69;100.00;71635.22;5072592;28;20194;-79
2022/04/22 02:25:23;;;;;;;19.03;10.33;;;;;;;-145.69;100.00;71647.16;5072923;28;20209;-79
2022/04/22 02:30:37;;;;;;;16.47;9.87;;;;;;;-145.69;100.00;71663.06;5073038;28;20364;-79
2022/04/22 02:33:04;;;;;;;20.17;10.80;;;;;;;-145.69;100.00;71677.00;5073043;28;20199;-79
2022/04/22 02:35:30;;;;;;;22.77;11.37;;;;;;;-145.69;100.00;71667.06;5072382;28;20195;-79
2022/04/22 02:37:57;;;;;;;21.30;11.00;;;;;;;-145.69;100.00;71680.97;5073160;28;20230;-79
2022/04/22 02:45:53;;;;;;;21.37;11.27;;;;;;;-145.69;100.00;71677.00;5052562;28;20206;-79
2022/04/22 02:48:20;;;;;;;21.97;11.10;;;;;;;-145.69;100.00;71694.91;5053067;28;20610;-79
2022/04/22 02:50:47;;;;;;;21.47;10.53;;;;;;;-145.69;100.00;71680.97;5052981;28;20231;-80
2022/04/22 02:53:13;;;;;;;18.53;10.23;;;;;;;-145.69;100.00;71700.88;5053063;28;20206;-79
2022/04/22 02:55:47;;;;;;;26.03;12.40;;;;;;;-145.69;100.00;71698.91;5053000;28;20195;-80
2022/04/22 02:58:14;;;;;;;18.40;10.63;;;;;;;-145.69;100.00;71700.88;5053105;28;20242;-79
2022/04/22 03:00:40;;;;;;;25.00;11.70;;;;;;;-145.69;100.00;71706.84;5070575;28;20256;-79
2022/04/22 03:03:08;;;;;;;27.17;12.13;;;;;;;-145.69;100.00;71692.94;5072315;28;20252;-79
2022/04/22 03:05:35;;;;;;;25.70;11.73;;;;;;;-145.69;100.00;71696.91;5073019;28;20211;-80
2022/04/22 03:08:01;;;;;;;23.47;11.77;;;;;;;-145.69;100.00;71680.97;5072926;28;20206;-79
2022/04/22 03:10:29;;;;;;;21.63;11.67;;;;;;;-145.69;100.00;71686.97;5072728;28;20561;-79
2022/04/22 03:12:56;;;;;;;23.70;11.17;;;;;;;-145.69;100.00;71698.91;5072666;28;20202;-79
2022/04/22 03:15:22;;;;;;;19.43;10.40;;;;;;;-145.69;100.00;71700.88;5072963;28;20202;-79
2022/04/22 03:17:49;;;;;;;24.23;12.17;;;;;;;-145.69;100.00;71686.97;5072654;28;20231;-79
2022/04/22 03:20:17;;;;;;;31.20;12.27;;;;;;;-145.69;100.00;71684.97;5072901;28;20222;-80
2022/04/22 03:22:44;;;;;;;25.40;11.70;;;;;;;-145.69;100.00;71700.88;5072755;28;20214;-79
2022/04/22 03:25:11;;;;;;;25.33;11.93;;;;;;;-145.69;100.00;71706.84;5072678;28;20203;-79
2022/04/22 03:27:37;;;;;;;22.17;11.17;;;;;;;-145.69;100.00;71726.75;5072776;28;20202;-79
2022/04/22 03:30:04;;;;;;;30.53;12.53;;;;;;;-145.69;100.00;71736.72;5072372;28;20206;-79
2022/04/22 03:32:31;;;;;;;23.90;12.00;;;;;;;-145.69;100.00;71732.72;5072653;28;20227;-80
2022/04/22 03:34:57;;;;;;;24.30;11.57;;;;;;;-145.69;100.00;71738.69;5072555;28;20226;-79
2022/04/22 03:37:25;;;;;;;27.07;12.73;;;;;;;-145.69;100.00;71726.75;5072340;28;20203;-79
2022/04/22 03:39:51;;;;;;;26.17;12.67;;;;;;;-145.69;100.00;71712.81;5072273;28;20601;-79
2022/04/22 03:42:18;;;;;;;26.40;13.43;;;;;;;-145.69;100.00;71716.81;5072291;28;20206;-79
2022/04/22 03:44:44;;;;;;;23.53;12.53;;;;;;;-145.69;100.00;71730.72;5072516;28;20199;-79
2022/04/22 03:47:11;;;;;;;26.57;12.63;;;;;;;-145.69;100.00;71742.69;5072286;28;20202;-78
2022/04/22 03:49:37;;;;;;;21.60;11.80;;;;;;;-145.69;100.00;71760.59;5071524;28;20199;-78
2022/04/22 03:52:05;;;;;;;24.57;12.07;;;;;;;-145.69;100.00;71768.53;5071859;28;20693;-79
2022/04/22 03:54:32;;;;;;;21.53;11.53;;;;;;;-145.69;100.00;71776.50;5072393;28;20199;-79
2022/04/22 03:59:43;;;;;;;22.50;11.60;;;;;;;-145.69;100.00;71782.47;5072480;28;20210;-79
2022/04/22 04:02:09;;;;;;;29.03;13.17;;;;;;;-145.69;100.00;71782.47;5072874;28;20600;-79
2022/04/22 04:04:36;;;;;;;31.55;18.00;;;;;;;-145.69;100.00;71782.47;5074880;28;20912;-79
2022/04/22 04:07:02;;;;;;;31.67;15.20;;;;;;;-145.69;100.00;71764.56;5075493;28;20698;-79
2022/04/22 04:17:42;;;;;;;29.70;14.10;;;;;;;-145.69;100.00;71780.50;5075605;28;20230;-79
2022/04/22 04:25:38;;;;;;;27.90;13.87;;;;;;;-145.69;100.00;71776.50;5074722;28;20209;-78
2022/04/22 04:28:09;;;;;;;26.47;12.77;;;;;;;-145.69;100.00;71796.41;5075463;28;20290;-78
2022/04/22 04:30:36;;;;;;;32.30;13.93;;;;;;;-145.69;100.00;71772.53;5075227;28;20289;-78
2022/04/22 04:33:03;;;;;;;34.77;14.70;;;;;;;-145.69;100.00;71786.47;5075552;28;20222;-78
2022/04/22 04:35:29;;;;;;;31.83;14.37;;;;;;;-145.69;100.00;71780.50;5073711;28;20253;-78
2022/04/22 04:37:56;;;;;;;28.23;13.63;;;;;;;-145.69;100.00;71784.47;5056651;28;20196;-78
2022/04/22 04:40:22;;;;;;;28.10;13.50;;;;;;;-145.69;100.00;71782.47;5055288;28;20200;-78
2022/04/22 04:42:49;;;;;;;32.83;15.07;;;;;;;-145.69;100.00;71768.53;5055111;28;20578;-78
2022/04/22 04:45:17;;;;;;;33.53;15.70;;;;;;;-145.69;100.00;71770.53;5055454;28;20203;-78
2022/04/22 04:47:44;;;;;;;36.33;15.73;;;;;;;-145.69;100.00;71772.53;5055245;28;20200;-78
2022/04/22 04:50:11;;;;;;;40.37;16.73;;;;;;;-145.69;100.00;71772.53;5055171;28;20200;-78
2022/04/22 04:52:39;;;;;;;35.27;15.60;;;;;;;-145.69;100.00;71760.59;5066136;28;20205;-78
2022/04/22 04:55:06;;;;;;;35.07;15.27;;;;;;;-145.69;100.00;71752.63;5075186;28;20267;-78
2022/04/22 04:57:33;;;;;;;29.30;14.10;;;;;;;-145.69;100.00;71758.59;5075141;28;20216;-78
2022/04/22 04:59:59;;;;;;;35.20;14.73;;;;;;;-145.69;100.00;71756.59;5075236;28;20201;-78
2022/04/22 05:02:27;;;;;;;35.13;16.13;;;;;;;-145.69;100.00;71746.66;5074877;28;20222;-78
2022/04/22 05:04:53;;;;;;;41.57;15.83;;;;;;;-145.69;100.00;71744.66;5074718;28;20202;-78
2022/04/22 05:07:20;;;;;;;31.50;14.67;;;;;;;-145.69;100.00;71744.66;5074822;28;20194;-78
2022/04/22 05:09:47;;;;;;;36.90;16.97;;;;;;;-145.69;100.00;71720.78;5074743;28;20199;-78
2022/04/22 05:12:13;;;;;;;36.53;15.53;;;;;;;-145.69;100.00;71714.81;5074910;28;20241;-78
2022/04/22 05:14:39;;;;;;;37.00;16.97;;;;;;;-145.69;100.00;71714.81;5073738;28;20245;-79
2022/04/22 05:17:06;;;;;;;38.53;17.40;;;;;;;-145.69;100.00;71700.88;5074025;28;20234;-78
2022/04/22 05:19:34;;;;;;;45.80;17.37;;;;;;;-145.69;100.00;71680.97;5073774;28;20226;-78
2022/04/22 05:22:00;;;;;;;39.60;17.90;;;;;;;-145.69;100.00;71680.97;5074318;28;20214;-78
2022/04/22 05:24:27;;;;;;;35.13;15.87;;;;;;;-145.69;100.00;71677.00;5074530;28;20202;-79
2022/04/22 05:26:53;;;;;;;38.63;15.93;;;;;;;-145.69;100.00;71671.03;5074856;28;20256;-79
2022/04/22 05:34:50;;;;;;;31.67;15.70;;;;;;;-145.69;100.00;71645.16;5074472;28;20206;-78
2022/04/22 05:37:16;;;;;;;33.63;15.57;;;;;;;-145.69;100.00;71641.19;5074447;28;20210;-78
2022/04/22 05:39:43;;;;;;;34.60;16.30;;;;;;;-145.69;100.00;71633.22;5074566;28;20203;-78
2022/04/22 05:42:10;;;;;;;38.67;17.37;;;;;;;-145.69;100.00;71621.28;5073999;28;20252;-78
2022/04/22 05:44:37;;;;;;;39.17;17.97;;;;;;;-145.69;100.00;71605.38;5074105;28;20190;-77
2022/04/22 05:47:05;;;;;;;33.37;16.67;;;;;;;-145.69;100.00;71597.41;5074126;28;20198;-78
2022/04/22 05:49:31;;;;;;;40.00;18.50;;;;;;;-145.69;100.00;71587.47;5073993;28;20198;-78
2022/04/22 05:51:59;;;;;;;38.10;18.17;;;;;;;-145.69;100.00;71575.50;5074196;28;20202;-78
2022/04/22 05:54:25;;;;;;;40.73;18.60;;;;;;;-145.69;100.00;71553.63;5074185;28;20566;-79
2022/04/22 05:56:52;;;;;;;47.50;19.03;;;;;;;-145.69;100.00;71531.75;5074204;28;20202;-78
2022/04/22 05:59:18;;;;;;;36.90;17.40;;;;;;;-145.69;100.00;71529.75;5073929;28;20199;-79
2022/04/22 06:01:44;;;;;;;35.00;17.93;;;;;;;-145.69;100.00;71517.81;5074002;28;20230;-78
2022/04/22 06:04:11;;;;;;;39.13;18.40;;;;;;;-145.69;100.00;71489.94;5074121;28;20256;-78
2022/04/22 06:06:37;;;;;;;36.87;17.27;;;;;;;-145.69;100.00;71470.06;5073949;28;20276;-78
2022/04/22 06:11:49;;;;;;;26.50;14.70;;;;;;;-145.69;100.00;71400.41;5073696;28;20263;-79
2022/04/22 06:14:15;;;;;;;24.63;13.17;;;;;;;-145.69;100.00;71384.47;5068206;28;20199;-78
2022/04/22 06:16:42;;;;;;;25.40;13.20;;;;;;;-145.69;100.00;71376.53;5072447;28;20238;-78
2022/04/22 06:19:08;;;;;;;23.87;13.03;;;;;;;-145.69;100.00;71360.59;5073392;28;20203;-77
2022/04/22 06:21:35;;;;;;;25.53;13.67;;;;;;;-145.69;100.00;71344.69;5073420;28;20211;-78
2022/04/22 06:24:02;;;;;;;31.47;13.53;;;;;;;-145.69;100.00;71346.69;5073133;28;20205;-77
2022/04/22 06:26:30;;;;;;;22.70;12.87;;;;;;;-145.69;100.00;71314.84;5072876;28;20199;-78
2022/04/22 06:28:56;;;;;;;20.40;12.03;;;;;;;-145.69;100.00;71286.97;5055195;28;20206;-78
2022/04/22 06:31:23;;;;;;;21.20;11.57;;;;;;;-145.69;100.00;71267.09;5052912;28;20728;-78
2022/04/22 06:33:50;;;;;;;26.03;12.43;;;;;;;-145.69;100.00;71269.06;5066058;28;20685;-78
2022/04/22 06:36:18;;;;;;;21.30;11.80;;;;;;;-145.69;100.00;71255.16;5073312;28;20195;-78
2022/04/22 06:38:46;;;;;;;21.40;11.73;;;;;;;-145.69;100.00;71225.31;5073240;28;20198;-78
2022/04/22 06:46:42;;;;;;;22.87;11.70;;;;;;;-145.69;100.00;71139.75;5072758;28;20248;-78
2022/04/22 06:49:11;;;;;;;20.07;10.73;;;;;;;-145.69;100.00;71139.75;5072546;28;20202;-78
2022/04/22 06:51:39;;;;;;;21.20;11.17;;;;;;;-145.69;100.00;71119.84;5073065;28;20205;-79
2022/04/22 06:54:06;;;;;;;18.53;12.10;;;;;;;-145.69;100.00;71103.94;5072015;28;20522;-78
2022/04/22 06:56:34;;;;;;;20.17;10.37;;;;;;;-145.69;100.00;71088.00;5073214;28;20198;-78
2022/04/22 06:59:03;;;;;;;22.80;11.63;;;;;;;-145.69;100.00;71066.13;5072979;28;20605;-78
2022/04/22 07:01:30;;;;;;;19.87;11.87;;;;;;;-145.69;100.00;71052.19;5072864;28;20637;-78
2022/04/22 07:03:57;;;;;;;19.07;10.10;;;;;;;-145.69;100.00;71044.22;5072475;28;20654;-78
2022/04/22 07:06:24;;;;;;;27.47;11.77;;;;;;;-145.69;100.00;71034.28;5071776;28;20190;-78
2022/04/22 07:08:51;;;;;;;19.73;11.07;;;;;;;-145.69;100.00;71012.41;5072254;28;20673;-78
2022/04/22 07:11:24;;;;;;;21.83;10.40;;;;;;;-145.69;100.00;70994.50;5072660;28;20654;-78
2022/04/22 07:13:51;;;;;;;17.03;10.07;;;;;;;-145.69;100.00;70972.59;5072652;28;20737;-77
2022/04/22 07:16:19;;;;;;;20.57;11.37;;;;;;;-145.69;100.00;70954.69;5072622;28;20205;-78
2022/04/22 07:18:46;;;;;;;21.33;10.53;;;;;;;-145.69;100.00;70932.81;5072643;28;20211;-78
2022/04/22 07:21:13;;;;;;;21.63;10.67;;;;;;;-145.69;100.00;70950.72;5073051;28;20233;-78
2022/04/22 07:23:40;;;;;;;19.43;11.00;;;;;;;-145.69;100.00;70940.78;5072649;28;20260;-77
2022/04/22 07:26:09;;;;;;;19.87;10.70;;;;;;;-145.69;100.00;70912.91;5072673;28;20206;-78
2022/04/22 07:28:37;;;;;;;20.20;10.70;;;;;;;-145.69;100.00;70887.06;5072471;28;20753;-78
2022/04/22 07:31:03;;;;;;;23.17;11.53;;;;;;;-145.69;100.00;70865.16;5072612;28;20199;-78
2022/04/22 07:33:32;;;;;;;21.67;11.87;;;;;;;-145.69;100.00;70881.09;5072148;28;20238;-78
2022/04/22 07:35:59;;;;;;;20.47;11.77;;;;;;;-145.69;100.00;70891.03;5072647;28;20206;-77
2022/04/22 07:38:26;;;;;;;19.57;11.63;;;;;;;-145.69;100.00;70875.13;5075278;28;20213;-79
2022/04/22 07:40:53;;;;;;;22.13;11.83;;;;;;;-145.69;100.00;70877.09;5076438;28;20209;-78
2022/04/22 07:48:53;;;;;;;21.23;12.83;;;;;;;-145.69;100.00;70775.63;5076386;28;20202;-79
2022/04/22 07:51:20;;;;;;;21.57;11.67;;;;;;;-145.69;100.00;70785.59;5074735;28;20199;-79
2022/04/22 07:53:47;;;;;;;22.07;12.37;;;;;;;-145.69;100.00;70809.47;5076234;28;20286;-80
2022/04/22 07:56:14;;;;;;;19.67;11.63;;;;;;;-145.69;100.00;70797.53;5076147;28;20199;-72
2022/04/22 07:58:40;;;;;;;26.20;13.73;;;;;;;-145.69;100.00;70789.56;5076219;28;20208;-80
2022/04/22 08:01:08;;;;;;;20.33;12.17;;;;;;;-145.69;100.00;70747.78;5076225;28;20202;-79
2022/04/22 08:03:36;;;;;;;23.00;13.43;;;;;;;-145.69;100.00;70779.63;5075262;28;20726;-79
2022/04/22 08:06:06;;;;;;;29.47;13.13;;;;;;;-145.69;100.00;70749.78;5075914;28;20198;-79
2022/04/22 08:08:32;;;;;;;23.03;13.10;;;;;;;-145.69;100.00;70741.81;5075351;28;20198;-80
2022/04/22 08:10:59;;;;;;;21.10;12.87;;;;;;;-145.69;100.00;70721.91;5075805;28;20233;-80
2022/04/22 08:13:26;;;;;;;25.83;12.67;;;;;;;-145.69;99.01;70721.91;5075996;28;20202;-80
2022/04/22 08:15:53;;;;;;;23.13;13.43;;;;;;;-145.69;99.49;70749.78;5075700;28;20855;-82
2022/04/22 08:18:19;;;;;;;25.03;13.90;;;;;;;-145.69;100.00;70745.78;5075637;28;20709;-79
2022/04/22 08:20:45;;;;;;;31.63;14.07;;;;;;;-145.69;99.96;70751.75;5075777;28;20592;-79
2022/04/22 08:23:13;;;;;;;26.57;14.23;;;;;;;-145.69;100.00;70719.94;5073093;28;20238;-79
2022/04/22 08:25:40;;;;;;;25.80;13.23;;;;;;;-145.69;96.50;70709.97;5055402;28;20199;-79
2022/04/22 08:28:06;;;;;;;26.07;13.57;;;;;;;-145.69;98.81;70713.97;5055500;28;20677;-80
2022/04/22 08:30:35;;;;;;;24.10;13.43;;;;;;;-145.69;98.53;70704.00;5055860;28;20230;-80
2022/04/22 08:33:01;;;;;;;23.40;13.77;;;;;;;-145.69;99.80;70706.00;5055615;28;20273;-79
2022/04/22 08:35:28;;;;;;;30.90;14.23;;;;;;;-145.69;99.88;70725.91;5055986;28;20586;-80
2022/04/22 08:37:54;;;;;;;27.37;14.30;;;;;;;-145.69;100.00;70719.94;5056786;28;20203;-80
2022/04/22 08:40:23;;;;;;;24.10;13.60;;;;;;;-145.69;98.79;70670.19;5070526;28;20245;-81
2022/04/22 08:42:49;;;;;;;23.20;13.40;;;;;;;-145.69;95.87;70622.44;5075558;28;20277;-79
2022/04/22 08:45:16;;;;;;;23.33;13.60;;;;;;;-145.69;94.16;70642.34;5075317;28;20213;-80
2022/04/22 08:50:28;;;;;;;26.23;13.70;;;;;;;-145.69;95.26;70618.47;5075129;28;20198;-82
2022/04/22 08:52:57;;;;;;;23.13;13.33;;;;;;;-145.69;91.56;70624.44;5074240;28;20199;-80
2022/04/22 08:55:26;;;;;;;24.57;14.20;;;;;;;-145.69;98.89;70602.56;5074282;28;20199;-81
2022/04/22 08:57:54;;;;;;;33.07;14.90;;;;;;;-145.69;95.02;70588.63;5075227;28;20202;-81
2022/04/22 09:00:22;;;;;;;30.43;13.03;;;;;;;-145.69;94.48;70622.44;5075120;28;20199;-81
2022/04/22 09:02:49;;;;;;;27.33;13.80;;;;;;;-145.69;94.50;70596.59;5074809;28;20227;-82
2022/04/22 09:05:16;;;;;;;27.33;13.80;;;;;;;-145.69;91.54;70590.63;5074961;28;20205;-82
2022/04/22 09:07:43;;;;;;;27.67;14.43;;;;;;;-145.69;92.76;70586.63;5075110;28;20244;-80
2022/04/22 09:10:11;;;;;;;20.70;12.70;;;;;;;-145.69;93.90;70558.78;5074672;28;20287;-80
2022/04/22 09:12:43;;;;;;;24.83;13.60;;;;;;;-145.69;88.70;70558.78;5074903;28;20692;-81
2022/04/22 09:15:10;;;;;;;24.57;13.80;;;;;;;-145.69;91.15;70538.88;5054552;28;20207;-79
2022/04/22 09:17:38;;;;;;;23.30;13.03;;;;;;;-145.69;90.08;70542.88;5053924;28;20227;-80
2022/04/22 09:20:06;;;;;;;23.70;13.23;;;;;;;-145.69;90.27;70546.84;5054654;28;20277;-83
2022/04/22 09:22:35;;;;;;;24.33;13.30;;;;;;;-145.69;88.54;70536.91;5054566;28;22532;-81
2022/04/22 09:25:04;;;;;;;23.97;13.13;;;;;;;-145.69;87.42;70532.91;5054563;28;20203;-84
2022/04/22 09:27:35;;;;;;;22.43;13.53;;;;;;;-145.69;91.19;70499.09;5054708;28;20346;-80
2022/04/22 09:30:07;;;;;;;28.43;13.53;;;;;;;-145.69;87.02;70503.06;5054002;28;20203;-81
2022/04/22 09:32:37;;;;;;;24.50;13.83;;;;;;;-145.69;89.31;70483.19;5054680;28;20234;-81
2022/04/22 09:35:15;;;;;;;22.50;13.50;;;;;;;-145.69;88.35;70489.16;5054680;28;20231;-81
2022/04/22 09:43:26;;;;;;;22.80;13.53;;;;;;;-145.69;85.86;70493.13;5074050;28;20318;-81
2022/04/22 09:45:54;;;;;;;22.60;14.80;;;;;;;-145.69;84.90;70459.31;5073213;28;20916;-79
2022/04/22 09:48:21;;;;;;;25.93;14.93;;;;;;;-145.69;85.30;70461.31;5073728;28;20226;-79
2022/04/22 09:50:52;;;;;;;25.77;13.50;;;;;;;-145.69;87.08;70451.34;5074030;28;20203;-79
2022/04/22 09:53:20;;;;;;;21.57;12.93;;;;;;;-145.69;86.14;70427.47;5073961;28;20199;-81
2022/04/22 09:55:53;;;;;;;24.87;13.63;;;;;;;-145.69;84.41;70411.56;5073633;28;20205;-80
2022/04/22 09:58:26;;;;;;;27.73;13.97;;;;;;;-145.69;83.80;70403.59;5073394;28;20198;-80
2022/04/22 10:01:03;;;;;;;24.60;13.10;;;;;;;-145.69;82.12;70401.63;5073091;28;20592;-81
2022/04/22 10:03:31;;;;;;;25.17;14.57;;;;;;;-145.69;82.52;70423.50;5070982;28;20218;-80
2022/04/22 10:05:58;;;;;;;24.23;13.40;;;;;;;-145.69;86.44;70427.47;5073668;28;20202;-79
2022/04/22 10:08:25;;;;;;;23.77;14.23;;;;;;;-145.69;83.80;70421.50;5073812;28;20203;-83
2022/04/22 10:10:53;;;;;;;29.10;13.50;;;;;;;-145.69;82.80;70413.56;5073717;28;20198;-79
2022/04/22 10:13:22;;;;;;;24.07;13.80;;;;;;;-145.69;84.33;70383.72;5073631;28;20202;-82
2022/04/22 10:15:49;;;;;;;26.00;14.57;;;;;;;-145.69;84.68;70387.69;5073438;28;20244;-79
2022/04/22 10:18:17;;;;;;;26.47;13.27;;;;;;;-145.69;83.43;70355.88;5073170;28;20243;-82
2022/04/22 10:20:46;;;;;;;21.83;13.63;;;;;;;-145.69;81.78;70341.94;5062222;28;20544;-80
2022/04/22 10:23:13;;;;;;;25.40;14.10;;;;;;;-145.69;81.59;70355.88;5053360;28;20219;-82
2022/04/22 10:25:39;;;;;;;24.97;14.63;;;;;;;-145.69;84.25;70367.81;5053457;28;20207;-79
2022/04/22 10:28:09;;;;;;;25.10;14.33;;;;;;;-145.69;82.59;70355.88;5055671;28;20199;-78
2022/04/22 10:30:38;;;;;;;23.13;13.57;;;;;;;-145.69;80.51;70320.06;5053195;28;20203;-79
2022/04/22 10:33:05;;;;;;;24.80;14.13;;;;;;;-145.69;81.67;70292.19;5053515;28;20206;-79
2022/04/22 10:35:39;;;;;;;24.77;14.33;;;;;;;-145.69;78.87;70284.25;5073114;28;20245;-79
2022/04/22 10:38:06;;;;;;;25.17;13.33;;;;;;;-145.69;80.86;70272.31;5073143;28;20207;-78
2022/04/22 10:40:32;;;;;;;21.03;13.60;;;;;;;-145.69;81.38;70244.47;5073100;28;20249;-78
2022/04/22 10:43:01;;;;;;;28.47;14.33;;;;;;;-145.69;78.72;70228.53;5072807;28;20296;-79
2022/04/22 10:48:24;;;;;;;27.73;14.13;;;;;;;-145.69;78.77;70244.47;5072667;28;20776;-79
2022/04/22 10:51:00;;;;;;;23.07;13.93;;;;;;;-145.69;75.30;70236.50;5053124;28;20203;-81
2022/04/22 10:53:28;;;;;;;23.20;14.07;;;;;;;-145.69;77.59;70216.63;5052875;28;20211;-78
2022/04/22 10:56:32;;;;;;;23.33;14.27;;;;;;;-145.69;75.87;70190.75;5053147;28;20211;-80
2022/04/22 10:59:33;;;;;;;23.00;13.70;;;;;;;-145.69;76.65;70164.88;5053137;28;20211;-79
2022/04/22 11:02:20;;;;;;;26.60;14.57;;;;;;;-145.69;73.37;70156.94;5052800;28;20231;-79
2022/04/22 11:04:47;;;;;;;25.17;14.37;;;;;;;-145.69;78.38;70170.84;5066110;28;20226;-79
2022/04/22 11:07:55;;;;;;;26.30;14.13;;;;;;;-145.69;74.37;70154.94;5072891;28;20199;-80
2022/04/22 11:10:23;;;;;;;29.70;15.13;;;;;;;-145.69;75.08;70156.94;5072958;28;20218;-79
2022/04/22 11:12:51;;;;;;;23.55;13.38;;;;;;;-145.69;75.30;70107.19;5074668;28;20307;-79
2022/04/22 11:15:50;;;;;;;26.93;15.03;;;;;;;-145.69;75.95;70113.16;5076990;28;20285;-81
2022/04/22 11:18:21;;;;;;;28.37;15.17;;;;;;;-145.69;71.92;70121.13;5076717;28;20313;-79
2022/04/22 11:20:52;;;;;;;26.93;15.00;;;;;;;-145.69;74.28;70097.25;5076710;28;20629;-79
2022/04/22 11:23:20;;;;;;;25.00;14.80;;;;;;;-145.69;76.45;70117.16;5076802;28;20230;-79
2022/04/22 11:25:46;;;;;;;22.30;13.57;;;;;;;-145.69;73.88;70095.28;5076517;28;20191;-79
2022/04/22 11:28:14;;;;;;;26.20;14.10;;;;;;;-145.69;73.88;70073.38;5076393;28;20308;-80
2022/04/22 11:30:41;;;;;;;21.13;13.57;;;;;;;-145.69;70.45;70085.31;5076649;28;20202;-79
2022/04/22 11:33:13;;;;;;;21.50;13.65;;;;;;;-145.69;70.93;70053.50;5076401;28;20286;-80
2022/04/22 11:35:40;;;;;;;24.15;13.45;;;;;;;-145.69;70.97;70033.59;5076774;28;20290;-79
2022/04/22 11:38:07;;;;;;;27.23;14.32;;;;;;;-145.69;69.26;70041.56;5076630;28;20211;-78
2022/04/22 11:40:37;;;;;;;26.60;15.10;;;;;;;-145.69;71.13;70029.63;5076554;28;20553;-78
2022/04/22 11:43:07;;;;;;;23.98;13.90;;;;;;;-145.69;74.55;70029.63;5076525;28;20213;-79
2022/04/22 11:45:37;;;;;;;24.48;13.48;;;;;;;-145.69;71.01;70017.69;5076545;28;20207;-81
2022/04/22 11:48:10;;;;;;;20.73;13.40;;;;;;;-145.69;71.87;70017.69;5076206;28;20557;-79
2022/04/22 11:50:41;;;;;;;22.17;14.10;;;;;;;-145.69;70.06;69987.84;5076267;28;20199;-79
2022/04/22 11:53:14;;;;;;;24.45;15.45;;;;;;;-145.69;71.13;69987.84;5075734;28;20925;-79
2022/04/22 11:55:43;;;;;;;22.00;13.48;;;;;;;-145.69;65.85;69977.91;5076180;28;20596;-80
2022/04/22 11:58:10;;;;;;;21.08;13.40;;;;;;;-145.69;67.07;69962.00;5076058;28;20199;-79
2022/04/22 12:06:07;;;;;;;115.45;43.95;;;;;;;-145.69;69.64;69975.91;5075922;28;20252;-80
2022/04/22 12:08:34;;;;;;;38.50;20.20;;;;;;;-145.69;67.66;69938.13;5076006;28;20209;-80
2022/04/22 12:11:02;;;;;;;21.85;13.35;;;;;;;-145.69;68.07;69938.13;5076068;28;20222;-80